sensor_id;sensor_type;location;lat;lon;timestamp;temperature;humidity
37356;DHT22;48747;50.250;18.848;2023-02-15T00:01:13;3.10;99.90
37356;DHT22;48747;50.250;18.848;2023-02-15T00:03:25;3.20;99.90
37356;DHT22;48747;50.250;18.848;2023-02-15T00:07:42;3.20;99.90
37356;DHT22;48747;50.250;18.848;2023-02-15T00:09:47;3.20;99.90
37356;DHT22;48747;50.250;18.848;2023-02-15T00:14:06;3.10;99.90
37356;DHT22;48747;50.250;18.848;2023-02-15T00:22:46;3.20;99.90
37356;DHT22;48747;50.250;18.848;2023-02-15T00:29:11;3.10;99.90
37356;DHT22;48747;50.250;18.848;2023-02-15T00:31:22;3.10;99.90
37356;DHT22;48747;50.250;18.848;2023-02-15T00:33:26;3.10;99.90
37356;DHT22;48747;50.250;18.848;2023-02-15T00:35:31;3.10;99.90
37356;DHT22;48747;50.250;18.848;2023-02-15T00:37:40;3.00;99.90
37356;DHT22;48747;50.250;18.848;2023-02-15T00:39:48;3.10;99.90
37356;DHT22;48747;50.250;18.848;2023-02-15T00:42:00;3.20;99.90
37356;DHT22;48747;50.250;18.848;2023-02-15T00:44:08;3.20;99.90
37356;DHT22;48747;50.250;18.848;2023-02-15T00:48:47;3.10;99.90
37356;DHT22;48747;50.250;18.848;2023-02-15T00:50:33;3.10;99.90
37356;DHT22;48747;50.250;18.848;2023-02-15T00:52:39;3.10;99.90
37356;DHT22;48747;50.250;18.848;2023-02-15T00:54:45;3.10;99.90
37356;DHT22;48747;50.250;18.848;2023-02-15T00:56:52;3.10;99.90
37356;DHT22;48747;50.250;18.848;2023-02-15T00:58:56;3.10;99.90
37356;DHT22;48747;50.250;18.848;2023-02-15T01:01:11;3.10;99.90
37356;DHT22;48747;50.250;18.848;2023-02-15T01:03:19;3.00;99.90
37356;DHT22;48747;50.250;18.848;2023-02-15T01:05:25;3.00;99.90
37356;DHT22;48747;50.250;18.848;2023-02-15T01:07:40;3.00;99.90
37356;DHT22;48747;50.250;18.848;2023-02-15T01:09:54;3.00;99.90
37356;DHT22;48747;50.250;18.848;2023-02-15T01:11:55;3.00;99.90
37356;DHT22;48747;50.250;18.848;2023-02-15T01:14:04;3.10;99.90
37356;DHT22;48747;50.250;18.848;2023-02-15T01:16:09;3.10;99.90
37356;DHT22;48747;50.250;18.848;2023-02-15T01:20:33;3.20;99.90
37356;DHT22;48747;50.250;18.848;2023-02-15T01:22:35;3.10;99.90
37356;DHT22;48747;50.250;18.848;2023-02-15T01:24:48;3.20;99.90
37356;DHT22;48747;50.250;18.848;2023-02-15T01:29:09;3.10;99.90
37356;DHT22;48747;50.250;18.848;2023-02-15T01:31:19;3.10;99.90
37356;DHT22;48747;50.250;18.848;2023-02-15T01:33:27;3.10;99.90
37356;DHT22;48747;50.250;18.848;2023-02-15T01:35:36;3.10;99.90
37356;DHT22;48747;50.250;18.848;2023-02-15T01:37:43;3.10;99.90
37356;DHT22;48747;50.250;18.848;2023-02-15T01:40:06;3.10;99.90
37356;DHT22;48747;50.250;18.848;2023-02-15T01:42:02;3.10;99.90
37356;DHT22;48747;50.250;18.848;2023-02-15T01:46:45;3.10;99.90
37356;DHT22;48747;50.250;18.848;2023-02-15T01:49:03;3.10;99.90
37356;DHT22;48747;50.250;18.848;2023-02-15T01:51:14;3.00;99.90
37356;DHT22;48747;50.250;18.848;2023-02-15T01:53:17;3.00;99.90
37356;DHT22;48747;50.250;18.848;2023-02-15T01:55:23;2.90;99.90
37356;DHT22;48747;50.250;18.848;2023-02-15T01:57:27;2.90;99.90
37356;DHT22;48747;50.250;18.848;2023-02-15T01:59:32;2.80;99.90
37356;DHT22;48747;50.250;18.848;2023-02-15T02:01:36;2.80;99.90
37356;DHT22;48747;50.250;18.848;2023-02-15T02:05:52;2.80;99.90
37356;DHT22;48747;50.250;18.848;2023-02-15T02:07:58;2.80;99.90
37356;DHT22;48747;50.250;18.848;2023-02-15T02:10:03;2.80;99.90
37356;DHT22;48747;50.250;18.848;2023-02-15T02:12:08;2.80;99.90
37356;DHT22;48747;50.250;18.848;2023-02-15T02:14:36;2.80;99.90
37356;DHT22;48747;50.250;18.848;2023-02-15T02:16:25;2.80;99.90
37356;DHT22;48747;50.250;18.848;2023-02-15T02:23:33;2.70;99.90
37356;DHT22;48747;50.250;18.848;2023-02-15T02:33:43;2.80;99.90
37356;DHT22;48747;50.250;18.848;2023-02-15T02:40:20;2.80;99.90
37356;DHT22;48747;50.250;18.848;2023-02-15T02:42:34;2.70;99.90
37356;DHT22;48747;50.250;18.848;2023-02-15T02:45:35;2.80;99.90
37356;DHT22;48747;50.250;18.848;2023-02-15T02:49:17;2.70;99.90
37356;DHT22;48747;50.250;18.848;2023-02-15T02:51:22;2.70;99.90
37356;DHT22;48747;50.250;18.848;2023-02-15T02:53:33;2.70;99.90
37356;DHT22;48747;50.250;18.848;2023-02-15T02:55:50;2.70;99.90
37356;DHT22;48747;50.250;18.848;2023-02-15T02:58:10;2.70;99.90
37356;DHT22;48747;50.250;18.848;2023-02-15T03:00:21;2.70;99.90
37356;DHT22;48747;50.250;18.848;2023-02-15T03:02:32;2.60;99.90
37356;DHT22;48747;50.250;18.848;2023-02-15T03:06:41;2.50;99.90
37356;DHT22;48747;50.250;18.848;2023-02-15T03:09:08;2.50;99.90
37356;DHT22;48747;50.250;18.848;2023-02-15T03:11:19;2.50;99.90
37356;DHT22;48747;50.250;18.848;2023-02-15T03:13:22;2.40;99.90
37356;DHT22;48747;50.250;18.848;2023-02-15T03:15:33;2.40;99.90
37356;DHT22;48747;50.250;18.848;2023-02-15T03:17:54;2.40;99.90
37356;DHT22;48747;50.250;18.848;2023-02-15T03:20:14;2.40;99.90
37356;DHT22;48747;50.250;18.848;2023-02-15T03:24:47;2.40;99.90
37356;DHT22;48747;50.250;18.848;2023-02-15T03:26:35;2.30;99.90
37356;DHT22;48747;50.250;18.848;2023-02-15T03:28:46;2.40;99.90
37356;DHT22;48747;50.250;18.848;2023-02-15T03:31:04;2.40;99.90
37356;DHT22;48747;50.250;18.848;2023-02-15T03:33:06;2.40;99.90
37356;DHT22;48747;50.250;18.848;2023-02-15T03:35:13;2.40;99.90
37356;DHT22;48747;50.250;18.848;2023-02-15T03:39:40;2.40;99.90
37356;DHT22;48747;50.250;18.848;2023-02-15T03:41:58;2.40;99.90
37356;DHT22;48747;50.250;18.848;2023-02-15T03:44:11;2.40;99.90
37356;DHT22;48747;50.250;18.848;2023-02-15T03:48:27;2.40;99.90
37356;DHT22;48747;50.250;18.848;2023-02-15T03:50:54;2.40;99.90
37356;DHT22;48747;50.250;18.848;2023-02-15T03:52:57;2.40;99.90
37356;DHT22;48747;50.250;18.848;2023-02-15T03:55:14;2.40;99.90
37356;DHT22;48747;50.250;18.848;2023-02-15T03:57:16;2.40;99.90
37356;DHT22;48747;50.250;18.848;2023-02-15T03:59:46;2.40;99.90
37356;DHT22;48747;50.250;18.848;2023-02-15T04:02:21;2.50;99.90
37356;DHT22;48747;50.250;18.848;2023-02-15T04:05:09;2.50;99.90
37356;DHT22;48747;50.250;18.848;2023-02-15T04:08:42;2.50;99.90
37356;DHT22;48747;50.250;18.848;2023-02-15T04:11:04;2.50;99.90
37356;DHT22;48747;50.250;18.848;2023-02-15T04:13:31;2.50;99.90
37356;DHT22;48747;50.250;18.848;2023-02-15T04:17:47;2.60;99.90
37356;DHT22;48747;50.250;18.848;2023-02-15T04:22:18;2.60;99.90
37356;DHT22;48747;50.250;18.848;2023-02-15T04:24:43;2.50;99.90
37356;DHT22;48747;50.250;18.848;2023-02-15T04:27:02;2.50;99.90
37356;DHT22;48747;50.250;18.848;2023-02-15T04:29:10;2.50;99.90
37356;DHT22;48747;50.250;18.848;2023-02-15T04:31:17;2.50;99.90
37356;DHT22;48747;50.250;18.848;2023-02-15T04:33:27;2.60;99.90
37356;DHT22;48747;50.250;18.848;2023-02-15T04:37:50;2.50;99.90
37356;DHT22;48747;50.250;18.848;2023-02-15T04:39:51;2.50;99.90
37356;DHT22;48747;50.250;18.848;2023-02-15T04:42:00;2.50;99.90
37356;DHT22;48747;50.250;18.848;2023-02-15T04:44:13;2.50;99.90
37356;DHT22;48747;50.250;18.848;2023-02-15T04:46:27;2.50;99.90
37356;DHT22;48747;50.250;18.848;2023-02-15T04:48:31;2.50;99.90
37356;DHT22;48747;50.250;18.848;2023-02-15T04:50:46;2.50;99.90
37356;DHT22;48747;50.250;18.848;2023-02-15T04:52:40;2.50;99.90
37356;DHT22;48747;50.250;18.848;2023-02-15T04:57:03;2.50;99.90
37356;DHT22;48747;50.250;18.848;2023-02-15T04:59:06;2.50;99.90
37356;DHT22;48747;50.250;18.848;2023-02-15T05:01:14;2.50;99.90
37356;DHT22;48747;50.250;18.848;2023-02-15T05:05:40;2.50;99.90
37356;DHT22;48747;50.250;18.848;2023-02-15T05:07:47;2.50;99.90
37356;DHT22;48747;50.250;18.848;2023-02-15T05:12:08;2.50;99.90
37356;DHT22;48747;50.250;18.848;2023-02-15T05:14:38;2.50;99.90
37356;DHT22;48747;50.250;18.848;2023-02-15T05:16:27;2.50;99.90
37356;DHT22;48747;50.250;18.848;2023-02-15T05:18:38;2.50;99.90
37356;DHT22;48747;50.250;18.848;2023-02-15T05:20:45;2.50;99.90
37356;DHT22;48747;50.250;18.848;2023-02-15T05:23:00;2.50;99.90
37356;DHT22;48747;50.250;18.848;2023-02-15T05:25:18;2.50;99.90
37356;DHT22;48747;50.250;18.848;2023-02-15T05:27:30;2.50;99.90
37356;DHT22;48747;50.250;18.848;2023-02-15T05:29:50;2.50;99.90
37356;DHT22;48747;50.250;18.848;2023-02-15T05:32:02;2.50;99.90
37356;DHT22;48747;50.250;18.848;2023-02-15T05:34:09;2.50;99.90
37356;DHT22;48747;50.250;18.848;2023-02-15T05:38:24;2.40;99.90
37356;DHT22;48747;50.250;18.848;2023-02-15T05:40:31;2.40;99.90
37356;DHT22;48747;50.250;18.848;2023-02-15T05:42:39;2.40;99.90
37356;DHT22;48747;50.250;18.848;2023-02-15T05:44:55;2.50;99.90
37356;DHT22;48747;50.250;18.848;2023-02-15T05:46:57;2.40;99.90
37356;DHT22;48747;50.250;18.848;2023-02-15T05:49:04;2.40;99.90
37356;DHT22;48747;50.250;18.848;2023-02-15T05:51:27;2.40;99.90
37356;DHT22;48747;50.250;18.848;2023-02-15T05:53:44;2.40;99.90
37356;DHT22;48747;50.250;18.848;2023-02-15T05:55:41;2.40;99.90
37356;DHT22;48747;50.250;18.848;2023-02-15T05:57:48;2.40;99.90
37356;DHT22;48747;50.250;18.848;2023-02-15T05:59:53;2.40;99.90
37356;DHT22;48747;50.250;18.848;2023-02-15T06:04:10;2.40;99.90
37356;DHT22;48747;50.250;18.848;2023-02-15T06:06:14;2.40;99.90
37356;DHT22;48747;50.250;18.848;2023-02-15T06:08:22;2.40;99.90
37356;DHT22;48747;50.250;18.848;2023-02-15T06:10:43;2.40;99.90
37356;DHT22;48747;50.250;18.848;2023-02-15T06:14:57;2.40;99.90
37356;DHT22;48747;50.250;18.848;2023-02-15T06:16:55;2.40;99.90
37356;DHT22;48747;50.250;18.848;2023-02-15T06:23:24;2.40;99.90
37356;DHT22;48747;50.250;18.848;2023-02-15T06:25:35;2.50;99.90
37356;DHT22;48747;50.250;18.848;2023-02-15T06:27:45;2.50;99.90
37356;DHT22;48747;50.250;18.848;2023-02-15T06:29:44;2.50;99.90
37356;DHT22;48747;50.250;18.848;2023-02-15T06:32:02;2.50;99.90
37356;DHT22;48747;50.250;18.848;2023-02-15T06:34:19;2.50;99.90
37356;DHT22;48747;50.250;18.848;2023-02-15T06:36:18;2.50;99.90
37356;DHT22;48747;50.250;18.848;2023-02-15T06:38:29;2.50;99.90
37356;DHT22;48747;50.250;18.848;2023-02-15T06:46:26;2.50;99.90
37356;DHT22;48747;50.250;18.848;2023-02-15T06:48:32;2.50;99.90
37356;DHT22;48747;50.250;18.848;2023-02-15T06:53:33;2.60;99.90
37356;DHT22;48747;50.250;18.848;2023-02-15T06:55:37;2.60;99.90
37356;DHT22;48747;50.250;18.848;2023-02-15T06:58:19;2.60;99.90
37356;DHT22;48747;50.250;18.848;2023-02-15T07:00:24;2.60;99.90
37356;DHT22;48747;50.250;18.848;2023-02-15T07:02:30;2.60;99.90
37356;DHT22;48747;50.250;18.848;2023-02-15T07:04:35;2.70;99.90
37356;DHT22;48747;50.250;18.848;2023-02-15T07:06:45;2.80;99.90
37356;DHT22;48747;50.250;18.848;2023-02-15T07:08:56;2.80;99.90
37356;DHT22;48747;50.250;18.848;2023-02-15T07:11:15;2.80;99.90
37356;DHT22;48747;50.250;18.848;2023-02-15T07:16:25;2.80;99.90
37356;DHT22;48747;50.250;18.848;2023-02-15T07:18:29;2.80;99.90
37356;DHT22;48747;50.250;18.848;2023-02-15T07:24:47;2.90;99.90
37356;DHT22;48747;50.250;18.848;2023-02-15T07:26:56;2.90;99.90
37356;DHT22;48747;50.250;18.848;2023-02-15T07:31:20;3.00;99.90
37356;DHT22;48747;50.250;18.848;2023-02-15T07:33:23;3.00;99.90
37356;DHT22;48747;50.250;18.848;2023-02-15T07:35:31;3.00;99.90
37356;DHT22;48747;50.250;18.848;2023-02-15T07:39:54;3.00;99.90
37356;DHT22;48747;50.250;18.848;2023-02-15T07:42:02;3.10;99.90
37356;DHT22;48747;50.250;18.848;2023-02-15T07:44:23;3.10;99.90
37356;DHT22;48747;50.250;18.848;2023-02-15T07:48:43;3.30;99.90
37356;DHT22;48747;50.250;18.848;2023-02-15T07:50:47;3.40;99.90
37356;DHT22;48747;50.250;18.848;2023-02-15T07:55:13;3.50;99.90
37356;DHT22;48747;50.250;18.848;2023-02-15T07:59:28;3.40;99.90
37356;DHT22;48747;50.250;18.848;2023-02-15T08:01:37;3.50;99.90
37356;DHT22;48747;50.250;18.848;2023-02-15T08:03:44;3.40;99.90
37356;DHT22;48747;50.250;18.848;2023-02-15T08:06:00;3.50;99.90
37356;DHT22;48747;50.250;18.848;2023-02-15T08:12:29;3.60;99.90
37356;DHT22;48747;50.250;18.848;2023-02-15T08:14:41;3.60;99.90
37356;DHT22;48747;50.250;18.848;2023-02-15T08:16:41;3.80;99.90
37356;DHT22;48747;50.250;18.848;2023-02-15T08:18:44;4.00;99.90
37356;DHT22;48747;50.250;18.848;2023-02-15T08:20:57;4.20;99.90
37356;DHT22;48747;50.250;18.848;2023-02-15T08:23:09;4.30;99.90
37356;DHT22;48747;50.250;18.848;2023-02-15T08:25:13;4.30;99.90
37356;DHT22;48747;50.250;18.848;2023-02-15T08:29:42;4.40;99.90
37356;DHT22;48747;50.250;18.848;2023-02-15T08:34:00;4.30;99.90
37356;DHT22;48747;50.250;18.848;2023-02-15T08:36:11;4.30;99.90
37356;DHT22;48747;50.250;18.848;2023-02-15T08:38:25;4.20;99.90
37356;DHT22;48747;50.250;18.848;2023-02-15T08:40:35;4.10;99.90
37356;DHT22;48747;50.250;18.848;2023-02-15T08:42:42;4.10;99.90
37356;DHT22;48747;50.250;18.848;2023-02-15T08:45:06;4.20;99.90
37356;DHT22;48747;50.250;18.848;2023-02-15T08:47:10;4.30;99.90
37356;DHT22;48747;50.250;18.848;2023-02-15T08:49:04;4.40;99.90
37356;DHT22;48747;50.250;18.848;2023-02-15T08:53:21;4.50;99.90
37356;DHT22;48747;50.250;18.848;2023-02-15T08:57:38;4.70;99.90
37356;DHT22;48747;50.250;18.848;2023-02-15T08:59:48;4.80;99.90
37356;DHT22;48747;50.250;18.848;2023-02-15T09:02:01;4.90;99.90
37356;DHT22;48747;50.250;18.848;2023-02-15T09:04:06;5.00;99.90
37356;DHT22;48747;50.250;18.848;2023-02-15T09:06:09;4.90;99.90
37356;DHT22;48747;50.250;18.848;2023-02-15T09:08:18;4.90;99.90
37356;DHT22;48747;50.250;18.848;2023-02-15T09:10:31;5.00;99.90
37356;DHT22;48747;50.250;18.848;2023-02-15T09:12:52;5.00;99.90
37356;DHT22;48747;50.250;18.848;2023-02-15T09:17:50;5.00;99.90
37356;DHT22;48747;50.250;18.848;2023-02-15T09:20:02;5.20;99.90
37356;DHT22;48747;50.250;18.848;2023-02-15T09:22:05;5.30;99.90
37356;DHT22;48747;50.250;18.848;2023-02-15T09:26:19;5.30;99.90
37356;DHT22;48747;50.250;18.848;2023-02-15T09:28:38;5.30;99.90
37356;DHT22;48747;50.250;18.848;2023-02-15T09:38:54;5.70;99.90
37356;DHT22;48747;50.250;18.848;2023-02-15T09:54:40;6.20;99.90
37356;DHT22;48747;50.250;18.848;2023-02-15T09:56:55;6.30;99.90
37356;DHT22;48747;50.250;18.848;2023-02-15T09:59:19;6.40;99.90
37356;DHT22;48747;50.250;18.848;2023-02-15T10:01:27;6.40;99.90
37356;DHT22;48747;50.250;18.848;2023-02-15T10:03:45;6.50;99.90
37356;DHT22;48747;50.250;18.848;2023-02-15T10:06:10;6.60;99.90
37356;DHT22;48747;50.250;18.848;2023-02-15T10:08:24;6.60;99.90
37356;DHT22;48747;50.250;18.848;2023-02-15T10:10:30;6.70;99.90
37356;DHT22;48747;50.250;18.848;2023-02-15T10:12:52;6.70;99.90
37356;DHT22;48747;50.250;18.848;2023-02-15T10:22:37;6.90;99.90
37356;DHT22;48747;50.250;18.848;2023-02-15T10:27:03;7.10;99.90
37356;DHT22;48747;50.250;18.848;2023-02-15T10:29:29;7.20;99.90
37356;DHT22;48747;50.250;18.848;2023-02-15T10:33:54;7.40;99.90
37356;DHT22;48747;50.250;18.848;2023-02-15T10:46:23;7.50;99.90
37356;DHT22;48747;50.250;18.848;2023-02-15T10:50:39;7.60;99.90
37356;DHT22;48747;50.250;18.848;2023-02-15T10:55:17;7.60;99.90
37356;DHT22;48747;50.250;18.848;2023-02-15T11:00:11;7.70;99.90
37356;DHT22;48747;50.250;18.848;2023-02-15T11:05:10;7.80;99.90
37356;DHT22;48747;50.250;18.848;2023-02-15T11:07:18;7.90;99.90
37356;DHT22;48747;50.250;18.848;2023-02-15T11:09:40;7.80;99.90
37356;DHT22;48747;50.250;18.848;2023-02-15T11:11:59;7.80;99.90
37356;DHT22;48747;50.250;18.848;2023-02-15T11:14:10;7.80;99.90
37356;DHT22;48747;50.250;18.848;2023-02-15T11:21:04;8.00;99.90
37356;DHT22;48747;50.250;18.848;2023-02-15T11:22:55;8.10;99.90
37356;DHT22;48747;50.250;18.848;2023-02-15T11:25:05;8.10;99.90
37356;DHT22;48747;50.250;18.848;2023-02-15T11:27:24;8.10;99.90
37356;DHT22;48747;50.250;18.848;2023-02-15T11:29:57;8.10;99.70
37356;DHT22;48747;50.250;18.848;2023-02-15T11:32:11;8.20;99.40
37356;DHT22;48747;50.250;18.848;2023-02-15T11:34:38;8.20;98.80
37356;DHT22;48747;50.250;18.848;2023-02-15T11:36:41;8.20;97.40
37356;DHT22;48747;50.250;18.848;2023-02-15T11:39:00;8.20;98.40
37356;DHT22;48747;50.250;18.848;2023-02-15T11:43:43;8.20;96.40
37356;DHT22;48747;50.250;18.848;2023-02-15T11:48:10;8.30;96.20
37356;DHT22;48747;50.250;18.848;2023-02-15T11:50:13;8.30;95.80
37356;DHT22;48747;50.250;18.848;2023-02-15T11:52:18;8.40;96.20
37356;DHT22;48747;50.250;18.848;2023-02-15T11:54:27;8.40;96.00
37356;DHT22;48747;50.250;18.848;2023-02-15T11:56:41;8.40;96.40
37356;DHT22;48747;50.250;18.848;2023-02-15T11:59:01;8.40;96.20
37356;DHT22;48747;50.250;18.848;2023-02-15T12:01:08;8.40;96.70
37356;DHT22;48747;50.250;18.848;2023-02-15T12:03:32;8.40;96.70
37356;DHT22;48747;50.250;18.848;2023-02-15T12:05:32;8.50;95.70
37356;DHT22;48747;50.250;18.848;2023-02-15T12:07:48;8.50;94.80
37356;DHT22;48747;50.250;18.848;2023-02-15T12:10:14;8.50;94.50
37356;DHT22;48747;50.250;18.848;2023-02-15T12:12:29;8.60;94.70
37356;DHT22;48747;50.250;18.848;2023-02-15T12:14:46;8.60;94.60
37356;DHT22;48747;50.250;18.848;2023-02-15T12:16:53;8.60;94.10
37356;DHT22;48747;50.250;18.848;2023-02-15T12:18:58;8.60;91.80
37356;DHT22;48747;50.250;18.848;2023-02-15T12:21:07;8.50;91.30
37356;DHT22;48747;50.250;18.848;2023-02-15T12:23:15;8.50;91.70
37356;DHT22;48747;50.250;18.848;2023-02-15T12:27:46;8.50;91.80
37356;DHT22;48747;50.250;18.848;2023-02-15T12:30:03;8.50;91.70
37356;DHT22;48747;50.250;18.848;2023-02-15T12:31:57;8.50;92.30
37356;DHT22;48747;50.250;18.848;2023-02-15T12:34:03;8.50;92.50
37356;DHT22;48747;50.250;18.848;2023-02-15T12:36:17;8.60;92.40
37356;DHT22;48747;50.250;18.848;2023-02-15T12:38:23;8.60;92.60
37356;DHT22;48747;50.250;18.848;2023-02-15T12:40:30;8.60;92.30
37356;DHT22;48747;50.250;18.848;2023-02-15T12:42:43;8.60;92.30
37356;DHT22;48747;50.250;18.848;2023-02-15T12:45:04;8.60;92.30
37356;DHT22;48747;50.250;18.848;2023-02-15T12:47:19;8.70;91.60
37356;DHT22;48747;50.250;18.848;2023-02-15T12:49:20;8.70;91.60
37356;DHT22;48747;50.250;18.848;2023-02-15T12:51:23;8.60;91.90
37356;DHT22;48747;50.250;18.848;2023-02-15T12:53:35;8.60;91.80
37356;DHT22;48747;50.250;18.848;2023-02-15T12:55:38;8.60;92.00
37356;DHT22;48747;50.250;18.848;2023-02-15T12:57:43;8.60;92.30
37356;DHT22;48747;50.250;18.848;2023-02-15T13:00:05;8.60;91.60
37356;DHT22;48747;50.250;18.848;2023-02-15T13:01:53;8.70;91.80
37356;DHT22;48747;50.250;18.848;2023-02-15T13:03:58;8.70;91.60
37356;DHT22;48747;50.250;18.848;2023-02-15T13:06:03;8.70;91.90
37356;DHT22;48747;50.250;18.848;2023-02-15T13:08:14;8.80;91.70
37356;DHT22;48747;50.250;18.848;2023-02-15T13:10:35;8.80;91.90
37356;DHT22;48747;50.250;18.848;2023-02-15T13:12:38;8.80;91.50
37356;DHT22;48747;50.250;18.848;2023-02-15T13:14:44;8.80;91.70
37356;DHT22;48747;50.250;18.848;2023-02-15T13:16:50;8.70;91.50
37356;DHT22;48747;50.250;18.848;2023-02-15T13:18:54;8.70;92.10
37356;DHT22;48747;50.250;18.848;2023-02-15T13:20:58;8.80;92.00
37356;DHT22;48747;50.250;18.848;2023-02-15T13:23:11;8.80;91.80
37356;DHT22;48747;50.250;18.848;2023-02-15T13:25:29;8.80;91.70
37356;DHT22;48747;50.250;18.848;2023-02-15T13:27:32;8.80;92.20
37356;DHT22;48747;50.250;18.848;2023-02-15T13:29:50;8.90;91.90
37356;DHT22;48747;50.250;18.848;2023-02-15T13:31:41;8.90;91.80
37356;DHT22;48747;50.250;18.848;2023-02-15T13:34:12;8.90;92.00
37356;DHT22;48747;50.250;18.848;2023-02-15T13:36:43;8.90;91.30
37356;DHT22;48747;50.250;18.848;2023-02-15T13:38:44;8.90;91.10
37356;DHT22;48747;50.250;18.848;2023-02-15T13:40:48;9.00;91.70
37356;DHT22;48747;50.250;18.848;2023-02-15T13:50:30;9.10;92.00
37356;DHT22;48747;50.250;18.848;2023-02-15T13:52:33;9.20;91.30
37356;DHT22;48747;50.250;18.848;2023-02-15T14:02:37;9.40;90.00
37356;DHT22;48747;50.250;18.848;2023-02-15T14:10:00;9.40;88.70
37356;DHT22;48747;50.250;18.848;2023-02-15T14:14:31;9.40;90.70
37356;DHT22;48747;50.250;18.848;2023-02-15T14:18:59;9.40;90.60
37356;DHT22;48747;50.250;18.848;2023-02-15T14:23:26;9.40;90.80
37356;DHT22;48747;50.250;18.848;2023-02-15T14:25:48;9.40;90.40
37356;DHT22;48747;50.250;18.848;2023-02-15T14:28:11;9.50;88.10
37356;DHT22;48747;50.250;18.848;2023-02-15T14:30:23;9.40;88.90
37356;DHT22;48747;50.250;18.848;2023-02-15T14:37:04;9.40;89.60
37356;DHT22;48747;50.250;18.848;2023-02-15T14:41:57;9.30;89.90
37356;DHT22;48747;50.250;18.848;2023-02-15T14:48:42;9.30;90.10
37356;DHT22;48747;50.250;18.848;2023-02-15T14:50:49;9.40;90.30
37356;DHT22;48747;50.250;18.848;2023-02-15T14:55:36;9.30;90.90
37356;DHT22;48747;50.250;18.848;2023-02-15T14:57:39;9.20;91.00
37356;DHT22;48747;50.250;18.848;2023-02-15T14:59:57;9.10;91.20
37356;DHT22;48747;50.250;18.848;2023-02-15T15:06:38;9.10;91.60
37356;DHT22;48747;50.250;18.848;2023-02-15T15:08:41;9.00;92.00
37356;DHT22;48747;50.250;18.848;2023-02-15T15:10:46;8.90;92.00
37356;DHT22;48747;50.250;18.848;2023-02-15T15:12:57;8.80;92.50
37356;DHT22;48747;50.250;18.848;2023-02-15T15:15:06;8.80;92.80
37356;DHT22;48747;50.250;18.848;2023-02-15T15:17:08;8.80;93.20
37356;DHT22;48747;50.250;18.848;2023-02-15T15:19:11;8.80;93.20
37356;DHT22;48747;50.250;18.848;2023-02-15T15:24:15;8.70;93.20
37356;DHT22;48747;50.250;18.848;2023-02-15T15:33:01;8.40;94.30
37356;DHT22;48747;50.250;18.848;2023-02-15T15:35:28;8.20;95.40
37356;DHT22;48747;50.250;18.848;2023-02-15T15:42:48;7.80;98.10
37356;DHT22;48747;50.250;18.848;2023-02-15T15:49:40;7.40;99.90
37356;DHT22;48747;50.250;18.848;2023-02-15T15:51:45;7.30;99.90
37356;DHT22;48747;50.250;18.848;2023-02-15T15:53:56;7.20;99.90
37356;DHT22;48747;50.250;18.848;2023-02-15T15:56:07;7.10;99.90
37356;DHT22;48747;50.250;18.848;2023-02-15T15:58:09;7.00;99.90
37356;DHT22;48747;50.250;18.848;2023-02-15T16:02:52;6.80;99.90
37356;DHT22;48747;50.250;18.848;2023-02-15T16:05:05;6.60;99.90
37356;DHT22;48747;50.250;18.848;2023-02-15T16:09:25;6.50;99.90
37356;DHT22;48747;50.250;18.848;2023-02-15T16:11:32;6.40;99.90
37356;DHT22;48747;50.250;18.848;2023-02-15T16:13:43;6.30;99.90
37356;DHT22;48747;50.250;18.848;2023-02-15T16:15:52;6.20;99.90
37356;DHT22;48747;50.250;18.848;2023-02-15T16:17:57;6.10;99.90
37356;DHT22;48747;50.250;18.848;2023-02-15T16:20:14;6.00;99.90
37356;DHT22;48747;50.250;18.848;2023-02-15T16:22:16;5.90;99.90
37356;DHT22;48747;50.250;18.848;2023-02-15T16:24:40;5.80;99.90
37356;DHT22;48747;50.250;18.848;2023-02-15T16:26:53;5.70;99.90
37356;DHT22;48747;50.250;18.848;2023-02-15T16:28:54;5.60;99.90
37356;DHT22;48747;50.250;18.848;2023-02-15T16:31:12;5.50;99.90
37356;DHT22;48747;50.250;18.848;2023-02-15T16:33:16;5.40;99.90
37356;DHT22;48747;50.250;18.848;2023-02-15T16:35:22;5.30;99.90
37356;DHT22;48747;50.250;18.848;2023-02-15T16:37:33;5.30;99.90
37356;DHT22;48747;50.250;18.848;2023-02-15T16:39:40;5.20;99.90
37356;DHT22;48747;50.250;18.848;2023-02-15T16:41:47;5.20;99.90
37356;DHT22;48747;50.250;18.848;2023-02-15T16:43:52;5.10;99.90
37356;DHT22;48747;50.250;18.848;2023-02-15T16:46:11;5.00;99.90
37356;DHT22;48747;50.250;18.848;2023-02-15T16:48:16;5.00;99.90
37356;DHT22;48747;50.250;18.848;2023-02-15T16:50:26;4.90;99.90
37356;DHT22;48747;50.250;18.848;2023-02-15T16:52:27;4.90;99.90
37356;DHT22;48747;50.250;18.848;2023-02-15T16:54:31;4.90;99.90
37356;DHT22;48747;50.250;18.848;2023-02-15T16:56:35;4.90;99.90
37356;DHT22;48747;50.250;18.848;2023-02-15T16:58:41;4.80;99.90
37356;DHT22;48747;50.250;18.848;2023-02-15T17:00:44;4.90;99.90
37356;DHT22;48747;50.250;18.848;2023-02-15T17:02:59;4.90;99.90
37356;DHT22;48747;50.250;18.848;2023-02-15T17:05:14;4.90;99.90
37356;DHT22;48747;50.250;18.848;2023-02-15T17:07:20;4.90;99.90
37356;DHT22;48747;50.250;18.848;2023-02-15T17:09:23;4.80;99.90
37356;DHT22;48747;50.250;18.848;2023-02-15T17:11:35;4.80;99.90
37356;DHT22;48747;50.250;18.848;2023-02-15T17:14:09;4.80;99.90
37356;DHT22;48747;50.250;18.848;2023-02-15T17:18:15;4.80;99.90
37356;DHT22;48747;50.250;18.848;2023-02-15T17:20:19;4.80;99.90
37356;DHT22;48747;50.250;18.848;2023-02-15T17:22:27;4.90;99.90
37356;DHT22;48747;50.250;18.848;2023-02-15T17:24:34;4.90;99.90
37356;DHT22;48747;50.250;18.848;2023-02-15T17:26:37;4.90;99.90
37356;DHT22;48747;50.250;18.848;2023-02-15T17:28:46;4.90;99.90
37356;DHT22;48747;50.250;18.848;2023-02-15T17:30:51;4.90;99.90
37356;DHT22;48747;50.250;18.848;2023-02-15T17:33:00;4.90;99.90
37356;DHT22;48747;50.250;18.848;2023-02-15T17:35:06;4.90;99.90
37356;DHT22;48747;50.250;18.848;2023-02-15T17:39:32;4.80;99.90
37356;DHT22;48747;50.250;18.848;2023-02-15T17:41:36;4.80;99.90
37356;DHT22;48747;50.250;18.848;2023-02-15T17:43:39;4.80;99.90
37356;DHT22;48747;50.250;18.848;2023-02-15T17:45:50;4.80;99.90
37356;DHT22;48747;50.250;18.848;2023-02-15T17:47:54;4.70;99.90
37356;DHT22;48747;50.250;18.848;2023-02-15T17:50:01;4.70;99.90
37356;DHT22;48747;50.250;18.848;2023-02-15T17:52:05;4.70;99.90
37356;DHT22;48747;50.250;18.848;2023-02-15T17:54:10;4.60;99.90
37356;DHT22;48747;50.250;18.848;2023-02-15T17:56:32;4.60;99.90
37356;DHT22;48747;50.250;18.848;2023-02-15T17:58:36;4.60;99.90
37356;DHT22;48747;50.250;18.848;2023-02-15T18:00:42;4.60;99.90
37356;DHT22;48747;50.250;18.848;2023-02-15T18:03:04;4.50;99.90
37356;DHT22;48747;50.250;18.848;2023-02-15T18:05:24;4.40;99.90
37356;DHT22;48747;50.250;18.848;2023-02-15T18:07:46;4.40;99.90